sensor_id;sensor_type;location;lat;lon;timestamp;P1;durP1;ratioP1;P2;durP2;ratioP2
23573;SDS011;11965;53.640;10.050;2022-11-20T00:02:19;8.08;;;8.00;;
23573;SDS011;11965;53.640;10.050;2022-11-20T00:04:45;7.62;;;7.62;;
23573;SDS011;11965;53.640;10.050;2022-11-20T00:07:11;7.72;;;7.72;;
23573;SDS011;11965;53.640;10.050;2022-11-20T00:09:36;8.29;;;8.29;;
23573;SDS011;11965;53.640;10.050;2022-11-20T00:12:02;7.91;;;7.91;;
23573;SDS011;11965;53.640;10.050;2022-11-20T00:14:28;7.82;;;7.82;;
23573;SDS011;11965;53.640;10.050;2022-11-20T00:16:54;7.76;;;7.76;;
23573;SDS011;11965;53.640;10.050;2022-11-20T00:19:19;7.99;;;7.87;;
23573;SDS011;11965;53.640;10.050;2022-11-20T00:21:45;7.99;;;7.90;;
23573;SDS011;11965;53.640;10.050;2022-11-20T00:24:10;7.39;;;7.34;;
23573;SDS011;11965;53.640;10.050;2022-11-20T00:26:36;7.74;;;7.72;;
23573;SDS011;11965;53.640;10.050;2022-11-20T00:29:02;7.03;;;6.99;;
23573;SDS011;11965;53.640;10.050;2022-11-20T00:31:29;7.45;;;7.30;;
23573;SDS011;11965;53.640;10.050;2022-11-20T00:33:55;7.49;;;7.27;;
23573;SDS011;11965;53.640;10.050;2022-11-20T00:36:23;7.65;;;7.51;;
23573;SDS011;11965;53.640;10.050;2022-11-20T00:38:51;7.35;;;7.32;;
23573;SDS011;11965;53.640;10.050;2022-11-20T00:41:18;7.45;;;7.33;;
23573;SDS011;11965;53.640;10.050;2022-11-20T00:43:44;7.07;;;7.05;;
23573;SDS011;11965;53.640;10.050;2022-11-20T00:46:12;7.04;;;7.04;;
23573;SDS011;11965;53.640;10.050;2022-11-20T00:48:40;7.30;;;7.27;;
23573;SDS011;11965;53.640;10.050;2022-11-20T00:51:06;7.00;;;6.99;;
23573;SDS011;11965;53.640;10.050;2022-11-20T00:53:31;6.97;;;6.81;;
23573;SDS011;11965;53.640;10.050;2022-11-20T00:55:58;7.29;;;7.20;;
23573;SDS011;11965;53.640;10.050;2022-11-20T00:58:28;6.93;;;6.92;;
23573;SDS011;11965;53.640;10.050;2022-11-20T01:01:09;6.96;;;6.96;;
23573;SDS011;11965;53.640;10.050;2022-11-20T01:03:36;6.75;;;6.75;;
23573;SDS011;11965;53.640;10.050;2022-11-20T01:06:11;6.90;;;6.90;;
23573;SDS011;11965;53.640;10.050;2022-11-20T01:08:39;6.70;;;6.69;;
23573;SDS011;11965;53.640;10.050;2022-11-20T01:11:06;7.19;;;7.19;;
23573;SDS011;11965;53.640;10.050;2022-11-20T01:13:34;6.98;;;6.98;;
23573;SDS011;11965;53.640;10.050;2022-11-20T01:16:06;7.34;;;7.30;;
23573;SDS011;11965;53.640;10.050;2022-11-20T01:18:41;6.82;;;6.76;;
23573;SDS011;11965;53.640;10.050;2022-11-20T01:21:13;6.72;;;6.70;;
23573;SDS011;11965;53.640;10.050;2022-11-20T01:23:44;6.62;;;6.62;;
23573;SDS011;11965;53.640;10.050;2022-11-20T01:26:19;6.52;;;6.52;;
23573;SDS011;11965;53.640;10.050;2022-11-20T01:28:47;6.82;;;6.82;;
23573;SDS011;11965;53.640;10.050;2022-11-20T01:31:18;6.34;;;6.34;;
23573;SDS011;11965;53.640;10.050;2022-11-20T01:33:51;6.47;;;6.47;;
23573;SDS011;11965;53.640;10.050;2022-11-20T01:36:19;6.37;;;6.37;;
23573;SDS011;11965;53.640;10.050;2022-11-20T01:38:46;6.56;;;6.56;;
23573;SDS011;11965;53.640;10.050;2022-11-20T01:41:13;6.54;;;6.54;;
23573;SDS011;11965;53.640;10.050;2022-11-20T01:44:00;6.84;;;6.84;;
23573;SDS011;11965;53.640;10.050;2022-11-20T01:46:28;6.17;;;6.17;;
23573;SDS011;11965;53.640;10.050;2022-11-20T01:49:05;6.61;;;6.60;;
23573;SDS011;11965;53.640;10.050;2022-11-20T01:54:18;6.42;;;6.42;;
23573;SDS011;11965;53.640;10.050;2022-11-20T01:56:51;6.18;;;6.18;;
23573;SDS011;11965;53.640;10.050;2022-11-20T01:59:23;6.37;;;6.37;;
23573;SDS011;11965;53.640;10.050;2022-11-20T02:01:53;7.00;;;6.99;;
23573;SDS011;11965;53.640;10.050;2022-11-20T02:04:20;6.24;;;6.21;;
23573;SDS011;11965;53.640;10.050;2022-11-20T02:06:48;6.83;;;6.83;;
23573;SDS011;11965;53.640;10.050;2022-11-20T02:09:22;6.45;;;6.44;;
23573;SDS011;11965;53.640;10.050;2022-11-20T02:11:48;6.56;;;6.55;;
23573;SDS011;11965;53.640;10.050;2022-11-20T02:14:14;6.49;;;6.46;;
23573;SDS011;11965;53.640;10.050;2022-11-20T02:16:43;6.79;;;6.70;;
23573;SDS011;11965;53.640;10.050;2022-11-20T02:19:32;6.72;;;6.71;;
23573;SDS011;11965;53.640;10.050;2022-11-20T02:22:41;6.70;;;6.70;;
23573;SDS011;11965;53.640;10.050;2022-11-20T02:25:12;6.74;;;6.74;;
23573;SDS011;11965;53.640;10.050;2022-11-20T02:27:40;6.84;;;6.84;;
23573;SDS011;11965;53.640;10.050;2022-11-20T02:30:06;6.79;;;6.79;;
23573;SDS011;11965;53.640;10.050;2022-11-20T02:32:38;6.90;;;6.89;;
23573;SDS011;11965;53.640;10.050;2022-11-20T02:35:38;6.54;;;6.51;;
23573;SDS011;11965;53.640;10.050;2022-11-20T02:37:56;6.70;;;6.69;;
23573;SDS011;11965;53.640;10.050;2022-11-20T02:40:25;7.01;;;7.01;;
23573;SDS011;11965;53.640;10.050;2022-11-20T02:42:54;7.01;;;7.00;;
23573;SDS011;11965;53.640;10.050;2022-11-20T02:45:21;6.40;;;6.27;;
23573;SDS011;11965;53.640;10.050;2022-11-20T02:47:48;6.47;;;6.41;;
23573;SDS011;11965;53.640;10.050;2022-11-20T02:50:14;6.43;;;6.43;;
23573;SDS011;11965;53.640;10.050;2022-11-20T02:52:40;6.71;;;6.71;;
23573;SDS011;11965;53.640;10.050;2022-11-20T02:55:06;6.50;;;6.50;;
23573;SDS011;11965;53.640;10.050;2022-11-20T02:57:32;6.44;;;6.44;;
23573;SDS011;11965;53.640;10.050;2022-11-20T02:59:58;6.39;;;6.39;;
23573;SDS011;11965;53.640;10.050;2022-11-20T03:02:24;6.18;;;6.18;;
23573;SDS011;11965;53.640;10.050;2022-11-20T03:04:49;6.71;;;6.71;;
23573;SDS011;11965;53.640;10.050;2022-11-20T03:07:15;6.62;;;6.54;;
23573;SDS011;11965;53.640;10.050;2022-11-20T03:09:41;6.52;;;6.42;;
23573;SDS011;11965;53.640;10.050;2022-11-20T03:12:06;5.97;;;5.97;;
23573;SDS011;11965;53.640;10.050;2022-11-20T03:14:32;6.37;;;6.37;;
23573;SDS011;11965;53.640;10.050;2022-11-20T03:16:58;5.83;;;5.83;;
23573;SDS011;11965;53.640;10.050;2022-11-20T03:19:23;6.07;;;6.07;;
23573;SDS011;11965;53.640;10.050;2022-11-20T03:21:49;6.09;;;6.06;;
23573;SDS011;11965;53.640;10.050;2022-11-20T03:24:15;6.24;;;6.19;;
23573;SDS011;11965;53.640;10.050;2022-11-20T03:26:41;6.10;;;6.10;;
23573;SDS011;11965;53.640;10.050;2022-11-20T03:29:07;6.21;;;6.21;;
23573;SDS011;11965;53.640;10.050;2022-11-20T03:31:34;6.05;;;6.05;;
23573;SDS011;11965;53.640;10.050;2022-11-20T03:34:02;6.56;;;6.56;;
23573;SDS011;11965;53.640;10.050;2022-11-20T03:36:29;6.16;;;6.16;;
23573;SDS011;11965;53.640;10.050;2022-11-20T03:38:56;6.06;;;6.06;;
23573;SDS011;11965;53.640;10.050;2022-11-20T03:41:23;6.27;;;6.26;;
23573;SDS011;11965;53.640;10.050;2022-11-20T03:43:55;6.21;;;6.21;;
23573;SDS011;11965;53.640;10.050;2022-11-20T03:46:25;6.41;;;6.41;;
23573;SDS011;11965;53.640;10.050;2022-11-20T03:48:53;5.95;;;5.95;;
23573;SDS011;11965;53.640;10.050;2022-11-20T03:51:20;6.23;;;6.23;;
23573;SDS011;11965;53.640;10.050;2022-11-20T03:53:49;5.88;;;5.87;;
23573;SDS011;11965;53.640;10.050;2022-11-20T03:56:17;5.94;;;5.94;;
23573;SDS011;11965;53.640;10.050;2022-11-20T03:58:45;6.38;;;6.38;;
23573;SDS011;11965;53.640;10.050;2022-11-20T04:01:15;5.67;;;5.67;;
23573;SDS011;11965;53.640;10.050;2022-11-20T04:03:44;5.86;;;5.86;;
23573;SDS011;11965;53.640;10.050;2022-11-20T04:06:11;6.07;;;6.07;;
23573;SDS011;11965;53.640;10.050;2022-11-20T04:08:58;6.04;;;6.01;;
23573;SDS011;11965;53.640;10.050;2022-11-20T04:11:27;5.89;;;5.83;;
23573;SDS011;11965;53.640;10.050;2022-11-20T04:13:56;6.12;;;6.12;;
23573;SDS011;11965;53.640;10.050;2022-11-20T04:16:24;6.02;;;6.02;;
23573;SDS011;11965;53.640;10.050;2022-11-20T04:18:54;5.97;;;5.97;;
23573;SDS011;11965;53.640;10.050;2022-11-20T04:21:23;5.88;;;5.88;;
23573;SDS011;11965;53.640;10.050;2022-11-20T04:23:50;5.67;;;5.67;;
23573;SDS011;11965;53.640;10.050;2022-11-20T04:26:21;5.88;;;5.88;;
23573;SDS011;11965;53.640;10.050;2022-11-20T04:28:49;5.76;;;5.76;;
23573;SDS011;11965;53.640;10.050;2022-11-20T04:31:16;5.51;;;5.51;;
23573;SDS011;11965;53.640;10.050;2022-11-20T04:33:44;5.83;;;5.83;;
23573;SDS011;11965;53.640;10.050;2022-11-20T04:36:15;5.54;;;5.54;;
23573;SDS011;11965;53.640;10.050;2022-11-20T04:38:43;5.88;;;5.85;;
23573;SDS011;11965;53.640;10.050;2022-11-20T04:41:12;6.13;;;6.13;;
23573;SDS011;11965;53.640;10.050;2022-11-20T04:43:41;5.50;;;5.50;;
23573;SDS011;11965;53.640;10.050;2022-11-20T04:46:15;6.00;;;6.00;;
23573;SDS011;11965;53.640;10.050;2022-11-20T04:48:42;5.87;;;5.87;;
23573;SDS011;11965;53.640;10.050;2022-11-20T04:51:07;5.47;;;5.47;;
23573;SDS011;11965;53.640;10.050;2022-11-20T04:53:33;5.56;;;5.56;;
23573;SDS011;11965;53.640;10.050;2022-11-20T04:56:03;5.37;;;5.37;;
23573;SDS011;11965;53.640;10.050;2022-11-20T04:58:31;5.62;;;5.62;;
23573;SDS011;11965;53.640;10.050;2022-11-20T05:01:01;6.08;;;6.08;;
23573;SDS011;11965;53.640;10.050;2022-11-20T05:03:28;5.53;;;5.53;;
23573;SDS011;11965;53.640;10.050;2022-11-20T05:05:54;5.75;;;5.75;;
23573;SDS011;11965;53.640;10.050;2022-11-20T05:08:19;5.80;;;5.80;;
23573;SDS011;11965;53.640;10.050;2022-11-20T05:10:45;5.58;;;5.57;;
23573;SDS011;11965;53.640;10.050;2022-11-20T05:13:11;5.57;;;5.56;;
23573;SDS011;11965;53.640;10.050;2022-11-20T05:15:36;5.79;;;5.79;;
23573;SDS011;11965;53.640;10.050;2022-11-20T05:18:02;5.85;;;5.85;;
23573;SDS011;11965;53.640;10.050;2022-11-20T05:20:28;5.62;;;5.62;;
23573;SDS011;11965;53.640;10.050;2022-11-20T05:22:56;5.84;;;5.84;;
23573;SDS011;11965;53.640;10.050;2022-11-20T05:25:22;5.56;;;5.56;;
23573;SDS011;11965;53.640;10.050;2022-11-20T05:27:48;5.87;;;5.87;;
23573;SDS011;11965;53.640;10.050;2022-11-20T05:30:14;5.64;;;5.64;;
23573;SDS011;11965;53.640;10.050;2022-11-20T05:32:39;5.93;;;5.93;;
23573;SDS011;11965;53.640;10.050;2022-11-20T05:35:05;5.94;;;5.94;;
23573;SDS011;11965;53.640;10.050;2022-11-20T05:37:31;5.53;;;5.53;;
23573;SDS011;11965;53.640;10.050;2022-11-20T05:39:57;5.83;;;5.83;;
23573;SDS011;11965;53.640;10.050;2022-11-20T05:42:22;5.47;;;5.47;;
23573;SDS011;11965;53.640;10.050;2022-11-20T05:44:57;5.62;;;5.62;;
23573;SDS011;11965;53.640;10.050;2022-11-20T05:47:24;5.62;;;5.62;;
23573;SDS011;11965;53.640;10.050;2022-11-20T05:49:50;5.65;;;5.65;;
23573;SDS011;11965;53.640;10.050;2022-11-20T05:52:16;5.96;;;5.96;;
23573;SDS011;11965;53.640;10.050;2022-11-20T05:54:42;5.80;;;5.80;;
23573;SDS011;11965;53.640;10.050;2022-11-20T05:57:07;5.43;;;5.43;;
23573;SDS011;11965;53.640;10.050;2022-11-20T05:59:33;6.08;;;6.08;;
23573;SDS011;11965;53.640;10.050;2022-11-20T06:01:58;6.10;;;6.10;;
23573;SDS011;11965;53.640;10.050;2022-11-20T06:04:24;6.18;;;6.18;;
23573;SDS011;11965;53.640;10.050;2022-11-20T06:06:50;6.16;;;6.16;;
23573;SDS011;11965;53.640;10.050;2022-11-20T06:09:15;6.58;;;6.58;;
23573;SDS011;11965;53.640;10.050;2022-11-20T06:11:41;6.25;;;6.25;;
23573;SDS011;11965;53.640;10.050;2022-11-20T06:14:07;6.27;;;6.27;;
23573;SDS011;11965;53.640;10.050;2022-11-20T06:16:32;6.57;;;6.57;;
23573;SDS011;11965;53.640;10.050;2022-11-20T06:18:58;6.50;;;6.50;;
23573;SDS011;11965;53.640;10.050;2022-11-20T06:21:24;6.55;;;6.55;;
23573;SDS011;11965;53.640;10.050;2022-11-20T06:23:50;6.49;;;6.49;;
23573;SDS011;11965;53.640;10.050;2022-11-20T06:26:18;6.61;;;6.61;;
23573;SDS011;11965;53.640;10.050;2022-11-20T06:28:46;6.71;;;6.71;;
23573;SDS011;11965;53.640;10.050;2022-11-20T06:31:13;6.48;;;6.48;;
23573;SDS011;11965;53.640;10.050;2022-11-20T06:33:41;6.70;;;6.70;;
23573;SDS011;11965;53.640;10.050;2022-11-20T06:36:08;6.39;;;6.39;;
23573;SDS011;11965;53.640;10.050;2022-11-20T06:38:36;6.42;;;6.42;;
23573;SDS011;11965;53.640;10.050;2022-11-20T06:41:02;6.68;;;6.68;;
23573;SDS011;11965;53.640;10.050;2022-11-20T06:43:30;6.56;;;6.56;;
23573;SDS011;11965;53.640;10.050;2022-11-20T06:45:56;6.71;;;6.71;;
23573;SDS011;11965;53.640;10.050;2022-11-20T06:48:23;6.83;;;6.83;;
23573;SDS011;11965;53.640;10.050;2022-11-20T06:50:51;7.25;;;7.25;;
23573;SDS011;11965;53.640;10.050;2022-11-20T06:53:17;6.58;;;6.58;;
23573;SDS011;11965;53.640;10.050;2022-11-20T06:55:43;7.20;;;7.20;;
23573;SDS011;11965;53.640;10.050;2022-11-20T06:58:10;7.17;;;7.17;;
23573;SDS011;11965;53.640;10.050;2022-11-20T07:00:36;7.40;;;7.40;;
23573;SDS011;11965;53.640;10.050;2022-11-20T07:03:04;6.80;;;6.80;;
23573;SDS011;11965;53.640;10.050;2022-11-20T07:05:31;7.22;;;7.22;;
23573;SDS011;11965;53.640;10.050;2022-11-20T07:07:57;7.26;;;7.26;;
23573;SDS011;11965;53.640;10.050;2022-11-20T07:11:37;7.07;;;7.07;;
23573;SDS011;11965;53.640;10.050;2022-11-20T07:14:04;7.00;;;7.00;;
23573;SDS011;11965;53.640;10.050;2022-11-20T07:16:31;6.84;;;6.84;;
23573;SDS011;11965;53.640;10.050;2022-11-20T07:18:58;7.03;;;7.03;;
23573;SDS011;11965;53.640;10.050;2022-11-20T07:21:25;6.82;;;6.82;;
23573;SDS011;11965;53.640;10.050;2022-11-20T07:23:52;6.53;;;6.53;;
23573;SDS011;11965;53.640;10.050;2022-11-20T07:26:19;6.62;;;6.62;;
23573;SDS011;11965;53.640;10.050;2022-11-20T07:28:47;6.75;;;6.75;;
23573;SDS011;11965;53.640;10.050;2022-11-20T07:31:14;7.02;;;7.02;;
23573;SDS011;11965;53.640;10.050;2022-11-20T07:33:41;6.79;;;6.79;;
23573;SDS011;11965;53.640;10.050;2022-11-20T07:36:08;6.91;;;6.91;;
23573;SDS011;11965;53.640;10.050;2022-11-20T07:38:35;6.83;;;6.83;;
23573;SDS011;11965;53.640;10.050;2022-11-20T07:41:03;6.87;;;6.87;;
23573;SDS011;11965;53.640;10.050;2022-11-20T07:43:30;6.90;;;6.90;;
23573;SDS011;11965;53.640;10.050;2022-11-20T07:45:59;7.14;;;7.14;;
23573;SDS011;11965;53.640;10.050;2022-11-20T07:48:26;7.01;;;7.01;;
23573;SDS011;11965;53.640;10.050;2022-11-20T07:50:53;7.29;;;7.29;;
23573;SDS011;11965;53.640;10.050;2022-11-20T07:53:21;7.53;;;7.53;;
23573;SDS011;11965;53.640;10.050;2022-11-20T07:55:48;7.06;;;7.06;;
23573;SDS011;11965;53.640;10.050;2022-11-20T07:58:17;6.79;;;6.79;;
23573;SDS011;11965;53.640;10.050;2022-11-20T08:00:44;6.76;;;6.76;;
23573;SDS011;11965;53.640;10.050;2022-11-20T08:03:12;7.25;;;7.25;;
23573;SDS011;11965;53.640;10.050;2022-11-20T08:05:39;7.46;;;7.46;;
23573;SDS011;11965;53.640;10.050;2022-11-20T08:08:06;8.00;;;8.00;;
23573;SDS011;11965;53.640;10.050;2022-11-20T08:10:33;7.58;;;7.58;;
23573;SDS011;11965;53.640;10.050;2022-11-20T08:13:00;7.13;;;7.13;;
23573;SDS011;11965;53.640;10.050;2022-11-20T08:15:47;8.15;;;8.15;;
23573;SDS011;11965;53.640;10.050;2022-11-20T08:18:18;8.05;;;8.05;;
23573;SDS011;11965;53.640;10.050;2022-11-20T08:20:45;7.84;;;7.84;;
23573;SDS011;11965;53.640;10.050;2022-11-20T08:23:12;8.14;;;8.14;;
23573;SDS011;11965;53.640;10.050;2022-11-20T08:25:39;8.07;;;8.07;;
23573;SDS011;11965;53.640;10.050;2022-11-20T08:28:07;7.88;;;7.88;;
23573;SDS011;11965;53.640;10.050;2022-11-20T08:30:36;7.32;;;7.32;;
23573;SDS011;11965;53.640;10.050;2022-11-20T08:33:03;7.55;;;7.55;;
23573;SDS011;11965;53.640;10.050;2022-11-20T08:35:35;6.90;;;6.90;;
23573;SDS011;11965;53.640;10.050;2022-11-20T08:38:03;7.12;;;7.12;;
23573;SDS011;11965;53.640;10.050;2022-11-20T08:40:31;7.49;;;7.49;;
23573;SDS011;11965;53.640;10.050;2022-11-20T08:42:58;7.29;;;7.29;;
23573;SDS011;11965;53.640;10.050;2022-11-20T08:45:26;7.56;;;7.56;;
23573;SDS011;11965;53.640;10.050;2022-11-20T08:47:53;7.66;;;7.66;;
23573;SDS011;11965;53.640;10.050;2022-11-20T08:50:19;7.68;;;7.68;;
23573;SDS011;11965;53.640;10.050;2022-11-20T08:52:48;7.54;;;7.54;;
23573;SDS011;11965;53.640;10.050;2022-11-20T08:55:15;7.48;;;7.48;;
23573;SDS011;11965;53.640;10.050;2022-11-20T08:57:42;7.53;;;7.53;;
23573;SDS011;11965;53.640;10.050;2022-11-20T09:00:09;8.12;;;8.12;;
23573;SDS011;11965;53.640;10.050;2022-11-20T09:02:37;8.57;;;8.57;;
23573;SDS011;11965;53.640;10.050;2022-11-20T09:05:04;8.37;;;8.37;;
23573;SDS011;11965;53.640;10.050;2022-11-20T09:07:32;8.04;;;8.04;;
23573;SDS011;11965;53.640;10.050;2022-11-20T09:10:00;7.76;;;7.76;;
23573;SDS011;11965;53.640;10.050;2022-11-20T09:12:27;7.80;;;7.80;;
23573;SDS011;11965;53.640;10.050;2022-11-20T09:14:53;7.58;;;7.58;;
23573;SDS011;11965;53.640;10.050;2022-11-20T09:17:20;7.67;;;7.67;;
23573;SDS011;11965;53.640;10.050;2022-11-20T09:19:47;8.29;;;8.29;;
23573;SDS011;11965;53.640;10.050;2022-11-20T09:22:14;7.81;;;7.81;;
23573;SDS011;11965;53.640;10.050;2022-11-20T09:24:41;8.15;;;8.15;;
23573;SDS011;11965;53.640;10.050;2022-11-20T09:27:09;8.07;;;8.07;;
23573;SDS011;11965;53.640;10.050;2022-11-20T09:29:36;9.02;;;9.02;;
23573;SDS011;11965;53.640;10.050;2022-11-20T09:32:03;8.55;;;8.55;;
23573;SDS011;11965;53.640;10.050;2022-11-20T09:34:31;8.63;;;8.63;;
23573;SDS011;11965;53.640;10.050;2022-11-20T09:36:58;8.84;;;8.84;;
23573;SDS011;11965;53.640;10.050;2022-11-20T09:39:25;7.52;;;7.52;;
23573;SDS011;11965;53.640;10.050;2022-11-20T09:41:58;7.32;;;7.32;;
23573;SDS011;11965;53.640;10.050;2022-11-20T09:44:51;7.78;;;7.78;;
23573;SDS011;11965;53.640;10.050;2022-11-20T09:47:33;8.21;;;8.21;;
23573;SDS011;11965;53.640;10.050;2022-11-20T09:50:19;7.34;;;7.34;;
23573;SDS011;11965;53.640;10.050;2022-11-20T09:52:58;7.06;;;7.06;;
23573;SDS011;11965;53.640;10.050;2022-11-20T09:55:38;9.08;;;9.08;;
23573;SDS011;11965;53.640;10.050;2022-11-20T09:58:07;7.47;;;7.47;;
23573;SDS011;11965;53.640;10.050;2022-11-20T10:00:43;7.53;;;7.53;;
23573;SDS011;11965;53.640;10.050;2022-11-20T10:03:12;7.50;;;7.50;;
23573;SDS011;11965;53.640;10.050;2022-11-20T10:05:46;7.15;;;7.15;;
23573;SDS011;11965;53.640;10.050;2022-11-20T10:08:18;6.49;;;6.49;;
23573;SDS011;11965;53.640;10.050;2022-11-20T10:10:52;6.90;;;6.90;;
23573;SDS011;11965;53.640;10.050;2022-11-20T10:13:33;6.89;;;6.89;;
23573;SDS011;11965;53.640;10.050;2022-11-20T10:16:14;6.90;;;6.90;;
23573;SDS011;11965;53.640;10.050;2022-11-20T10:18:59;5.86;;;5.86;;
23573;SDS011;11965;53.640;10.050;2022-11-20T10:21:42;5.84;;;5.84;;
23573;SDS011;11965;53.640;10.050;2022-11-20T10:24:26;5.91;;;5.91;;
23573;SDS011;11965;53.640;10.050;2022-11-20T10:27:10;6.30;;;6.30;;
23573;SDS011;11965;53.640;10.050;2022-11-20T10:30:07;5.96;;;5.96;;
23573;SDS011;11965;53.640;10.050;2022-11-20T10:32:39;6.39;;;6.39;;
23573;SDS011;11965;53.640;10.050;2022-11-20T10:35:14;6.43;;;6.43;;
23573;SDS011;11965;53.640;10.050;2022-11-20T10:37:48;7.11;;;7.11;;
23573;SDS011;11965;53.640;10.050;2022-11-20T10:40:23;6.31;;;6.31;;
23573;SDS011;11965;53.640;10.050;2022-11-20T10:42:57;6.73;;;6.73;;
23573;SDS011;11965;53.640;10.050;2022-11-20T10:45:33;6.18;;;6.18;;
23573;SDS011;11965;53.640;10.050;2022-11-20T10:48:16;6.41;;;6.41;;
23573;SDS011;11965;53.640;10.050;2022-11-20T10:51:03;6.80;;;6.80;;
23573;SDS011;11965;53.640;10.050;2022-11-20T10:53:47;6.46;;;6.46;;
23573;SDS011;11965;53.640;10.050;2022-11-20T10:56:25;6.31;;;6.31;;
23573;SDS011;11965;53.640;10.050;2022-11-20T10:59:10;6.05;;;6.05;;
23573;SDS011;11965;53.640;10.050;2022-11-20T11:01:54;6.56;;;6.56;;
23573;SDS011;11965;53.640;10.050;2022-11-20T11:04:28;6.51;;;6.51;;
23573;SDS011;11965;53.640;10.050;2022-11-20T11:07:04;6.90;;;6.90;;
23573;SDS011;11965;53.640;10.050;2022-11-20T11:09:38;6.35;;;6.35;;
23573;SDS011;11965;53.640;10.050;2022-11-20T11:12:09;6.51;;;6.51;;
23573;SDS011;11965;53.640;10.050;2022-11-20T11:14:44;6.44;;;6.44;;
23573;SDS011;11965;53.640;10.050;2022-11-20T11:17:20;6.64;;;6.64;;
23573;SDS011;11965;53.640;10.050;2022-11-20T11:20:05;6.65;;;6.65;;
23573;SDS011;11965;53.640;10.050;2022-11-20T11:22:43;6.68;;;6.68;;
23573;SDS011;11965;53.640;10.050;2022-11-20T11:25:18;6.40;;;6.40;;
23573;SDS011;11965;53.640;10.050;2022-11-20T11:27:57;5.87;;;5.87;;
23573;SDS011;11965;53.640;10.050;2022-11-20T11:30:26;5.88;;;5.88;;
23573;SDS011;11965;53.640;10.050;2022-11-20T11:33:04;6.55;;;6.55;;
23573;SDS011;11965;53.640;10.050;2022-11-20T11:35:38;7.10;;;7.10;;
23573;SDS011;11965;53.640;10.050;2022-11-20T11:38:12;6.03;;;6.03;;
23573;SDS011;11965;53.640;10.050;2022-11-20T11:40:44;5.79;;;5.79;;
23573;SDS011;11965;53.640;10.050;2022-11-20T11:43:19;5.50;;;5.50;;
23573;SDS011;11965;53.640;10.050;2022-11-20T11:46:13;5.44;;;5.44;;
23573;SDS011;11965;53.640;10.050;2022-11-20T11:48:57;5.79;;;5.79;;
23573;SDS011;11965;53.640;10.050;2022-11-20T11:51:29;5.69;;;5.69;;
23573;SDS011;11965;53.640;10.050;2022-11-20T11:54:14;6.39;;;6.39;;
23573;SDS011;11965;53.640;10.050;2022-11-20T11:56:46;5.45;;;5.45;;
23573;SDS011;11965;53.640;10.050;2022-11-20T11:59:15;5.04;;;5.04;;
23573;SDS011;11965;53.640;10.050;2022-11-20T12:01:53;6.11;;;6.11;;
23573;SDS011;11965;53.640;10.050;2022-11-20T12:04:29;5.34;;;5.34;;
23573;SDS011;11965;53.640;10.050;2022-11-20T12:07:10;4.93;;;4.93;;
23573;SDS011;11965;53.640;10.050;2022-11-20T12:09:47;5.02;;;5.02;;
23573;SDS011;11965;53.640;10.050;2022-11-20T12:12:20;5.39;;;5.39;;
23573;SDS011;11965;53.640;10.050;2022-11-20T12:14:54;5.57;;;5.57;;
23573;SDS011;11965;53.640;10.050;2022-11-20T12:17:24;4.98;;;4.98;;
23573;SDS011;11965;53.640;10.050;2022-11-20T12:19:51;5.45;;;5.45;;
23573;SDS011;11965;53.640;10.050;2022-11-20T12:22:21;5.78;;;5.78;;
23573;SDS011;11965;53.640;10.050;2022-11-20T12:24:59;5.16;;;5.16;;
23573;SDS011;11965;53.640;10.050;2022-11-20T12:27:40;5.36;;;5.36;;
23573;SDS011;11965;53.640;10.050;2022-11-20T12:30:22;5.31;;;5.31;;
23573;SDS011;11965;53.640;10.050;2022-11-20T12:38:48;5.10;;;5.10;;
23573;SDS011;11965;53.640;10.050;2022-11-20T12:41:35;5.26;;;5.26;;
23573;SDS011;11965;53.640;10.050;2022-11-20T12:44:38;5.27;;;5.27;;
23573;SDS011;11965;53.640;10.050;2022-11-20T12:47:41;5.12;;;5.12;;
23573;SDS011;11965;53.640;10.050;2022-11-20T12:50:27;5.05;;;5.05;;
23573;SDS011;11965;53.640;10.050;2022-11-20T12:53:07;6.54;;;6.54;;
23573;SDS011;11965;53.640;10.050;2022-11-20T12:55:49;7.21;;;7.21;;
23573;SDS011;11965;53.640;10.050;2022-11-20T12:58:27;6.32;;;6.32;;
23573;SDS011;11965;53.640;10.050;2022-11-20T13:01:09;5.99;;;5.99;;
23573;SDS011;11965;53.640;10.050;2022-11-20T13:04:05;5.92;;;5.92;;
23573;SDS011;11965;53.640;10.050;2022-11-20T13:06:43;7.35;;;7.35;;
23573;SDS011;11965;53.640;10.050;2022-11-20T13:09:11;7.60;;;7.60;;
23573;SDS011;11965;53.640;10.050;2022-11-20T13:11:43;6.93;;;6.93;;
23573;SDS011;11965;53.640;10.050;2022-11-20T13:14:24;7.80;;;7.80;;
23573;SDS011;11965;53.640;10.050;2022-11-20T13:17:02;6.44;;;6.44;;
23573;SDS011;11965;53.640;10.050;2022-11-20T13:19:38;5.85;;;5.85;;
23573;SDS011;11965;53.640;10.050;2022-11-20T13:22:07;4.76;;;4.76;;
23573;SDS011;11965;53.640;10.050;2022-11-20T13:24:35;5.06;;;5.06;;
23573;SDS011;11965;53.640;10.050;2022-11-20T13:27:17;4.91;;;4.91;;
23573;SDS011;11965;53.640;10.050;2022-11-20T13:29:47;5.39;;;5.39;;
23573;SDS011;11965;53.640;10.050;2022-11-20T13:32:27;4.73;;;4.73;;
23573;SDS011;11965;53.640;10.050;2022-11-20T13:34:58;4.91;;;4.91;;
23573;SDS011;11965;53.640;10.050;2022-11-20T13:37:28;5.08;;;5.08;;
23573;SDS011;11965;53.640;10.050;2022-11-20T13:40:05;4.83;;;4.83;;
23573;SDS011;11965;53.640;10.050;2022-11-20T13:42:54;4.68;;;4.68;;
23573;SDS011;11965;53.640;10.050;2022-11-20T13:45:24;4.49;;;4.49;;
23573;SDS011;11965;53.640;10.050;2022-11-20T13:47:54;4.58;;;4.58;;
23573;SDS011;11965;53.640;10.050;2022-11-20T13:50:27;4.78;;;4.78;;
23573;SDS011;11965;53.640;10.050;2022-11-20T13:53:10;4.77;;;4.77;;
23573;SDS011;11965;53.640;10.050;2022-11-20T13:55:54;4.71;;;4.71;;
23573;SDS011;11965;53.640;10.050;2022-11-20T13:58:36;5.16;;;5.16;;
23573;SDS011;11965;53.640;10.050;2022-11-20T14:01:16;5.26;;;5.26;;
23573;SDS011;11965;53.640;10.050;2022-11-20T14:03:47;5.26;;;5.26;;
23573;SDS011;11965;53.640;10.050;2022-11-20T14:06:21;5.28;;;5.28;;
23573;SDS011;11965;53.640;10.050;2022-11-20T14:08:53;5.36;;;5.36;;
23573;SDS011;11965;53.640;10.050;2022-11-20T14:11:21;5.92;;;5.92;;
23573;SDS011;11965;53.640;10.050;2022-11-20T14:13:53;5.73;;;5.73;;
23573;SDS011;11965;53.640;10.050;2022-11-20T14:16:23;5.87;;;5.87;;
23573;SDS011;11965;53.640;10.050;2022-11-20T14:18:52;5.57;;;5.57;;
23573;SDS011;11965;53.640;10.050;2022-11-20T14:21:23;5.54;;;5.54;;
23573;SDS011;11965;53.640;10.050;2022-11-20T14:23:52;8.45;;;8.45;;
23573;SDS011;11965;53.640;10.050;2022-11-20T14:26:20;8.79;;;8.79;;
23573;SDS011;11965;53.640;10.050;2022-11-20T14:28:48;12.37;;;12.20;;
23573;SDS011;11965;53.640;10.050;2022-11-20T14:31:21;15.27;;;14.86;;
23573;SDS011;11965;53.640;10.050;2022-11-20T14:33:51;7.83;;;7.81;;
23573;SDS011;11965;53.640;10.050;2022-11-20T14:36:21;10.23;;;10.15;;
23573;SDS011;11965;53.640;10.050;2022-11-20T14:38:50;10.06;;;10.04;;
23573;SDS011;11965;53.640;10.050;2022-11-20T14:41:20;8.20;;;8.20;;
23573;SDS011;11965;53.640;10.050;2022-11-20T14:43:50;6.75;;;6.75;;
23573;SDS011;11965;53.640;10.050;2022-11-20T14:46:23;6.38;;;6.38;;
23573;SDS011;11965;53.640;10.050;2022-11-20T14:48:51;9.20;;;9.20;;
23573;SDS011;11965;53.640;10.050;2022-11-20T14:51:29;7.97;;;7.97;;
23573;SDS011;11965;53.640;10.050;2022-11-20T14:54:08;5.83;;;5.83;;
23573;SDS011;11965;53.640;10.050;2022-11-20T14:56:36;6.29;;;6.29;;
23573;SDS011;11965;53.640;10.050;2022-11-20T14:59:03;7.40;;;7.40;;
23573;SDS011;11965;53.640;10.050;2022-11-20T15:01:34;6.41;;;6.41;;
23573;SDS011;11965;53.640;10.050;2022-11-20T15:04:05;5.88;;;5.88;;
23573;SDS011;11965;53.640;10.050;2022-11-20T15:06:35;6.04;;;6.04;;